Time;durP1;ratioP1;P1;durP2;ratioP2;P2;SDS_P1;SDS_P2;PMS_P1;PMS_P2;Temp;Humidity;BMP_temperature;BMP_pressure;BME280_temperature;BME280_humidity;BME280_pressure;Samples;Min_cycle;Max_cycle;Signal;HPM_P1;HPM_P2
2021/11/29 00:02:21;;;;;;;;;;;20.70;60.00;;;;;;4997458;28;1386;-71
2021/11/29 00:04:47;;;;;;;;;;;20.60;60.00;;;;;;4997750;28;1329;-71
2021/11/29 00:07:12;;;;;;;;;;;20.70;60.00;;;;;;4994172;28;1923;-71
2021/11/29 00:09:38;;;;;;;;;;;20.70;60.00;;;;;;4995708;28;1353;-71
2021/11/29 00:12:03;;;;;;;;;;;20.70;60.00;;;;;;4994723;28;1288;-71
2021/11/29 00:14:29;;;;;;;;;;;20.60;60.00;;;;;;4995246;28;1357;-71
2021/11/29 00:16:54;;;;;;;;;;;20.60;60.00;;;;;;4995200;28;1334;-72
2021/11/29 00:19:20;;;;;;;;;;;20.60;60.10;;;;;;4995414;28;1264;-71
2021/11/29 00:21:45;;;;;;;;;;;20.60;60.10;;;;;;4983543;28;1374;-71
2021/11/29 00:24:12;;;;;;;;;;;20.60;60.10;;;;;;4995389;28;1317;-71
2021/11/29 00:26:37;;;;;;;;;;;20.60;60.10;;;;;;4995525;28;1304;-70
2021/11/29 00:29:02;;;;;;;;;;;20.60;60.10;;;;;;4994858;28;1962;-71
2021/11/29 00:31:28;;;;;;;;;;;20.60;60.20;;;;;;4992899;28;1293;-71
2021/11/29 00:33:54;;;;;;;;;;;20.60;60.20;;;;;;4995235;28;1189;-71
2021/11/29 00:36:19;;;;;;;;;;;20.60;60.20;;;;;;4995494;28;1298;-72
2021/11/29 00:38:45;;;;;;;;;;;20.60;60.20;;;;;;4993243;28;2351;-71
2021/11/29 00:41:10;;;;;;;;;;;20.60;60.20;;;;;;4993754;28;1234;-71
2021/11/29 00:43:36;;;;;;;;;;;20.60;60.30;;;;;;4994524;28;1363;-72
2021/11/29 00:46:01;;;;;;;;;;;20.60;60.30;;;;;;4993438;28;1406;-71
2021/11/29 00:48:26;;;;;;;;;;;20.60;60.30;;;;;;4994028;28;1966;-71
2021/11/29 00:50:52;;;;;;;;;;;20.60;60.30;;;;;;4993052;28;1288;-70
2021/11/29 00:53:17;;;;;;;;;;;20.60;60.30;;;;;;4993515;28;1384;-71
2021/11/29 00:55:43;;;;;;;;;;;20.60;60.40;;;;;;4995167;28;1289;-72
2021/11/29 00:58:08;;;;;;;;;;;20.60;60.30;;;;;;4994656;28;1429;-71
2021/11/29 01:00:35;;;;;;;;;;;20.60;60.40;;;;;;4994345;28;1665;-71
2021/11/29 01:03:00;;;;;;;;;;;20.60;60.40;;;;;;4994023;28;1389;-71
2021/11/29 01:05:26;;;;;;;;;;;20.50;60.30;;;;;;4994368;28;1115;-72
2021/11/29 01:07:51;;;;;;;;;;;20.50;60.30;;;;;;4994839;28;1965;-72
2021/11/29 01:10:17;;;;;;;;;;;20.50;60.40;;;;;;4993467;28;1343;-71
2021/11/29 01:12:43;;;;;;;;;;;20.50;60.40;;;;;;4992187;28;1305;-71
2021/11/29 01:15:09;;;;;;;;;;;20.50;60.40;;;;;;4993134;28;1283;-71
2021/11/29 01:17:34;;;;;;;;;;;20.50;60.40;;;;;;4993014;28;1280;-72
2021/11/29 01:20:00;;;;;;;;;;;20.50;60.40;;;;;;4993259;28;1371;-72
2021/11/29 01:22:26;;;;;;;;;;;20.50;60.40;;;;;;4982639;28;1389;-70
2021/11/29 01:24:51;;;;;;;;;;;20.50;60.50;;;;;;4994364;28;1071;-71
2021/11/29 01:27:16;;;;;;;;;;;20.50;60.50;;;;;;4994036;28;1895;-71
2021/11/29 01:29:42;;;;;;;;;;;20.50;60.50;;;;;;4993951;28;1036;-71
2021/11/29 01:32:07;;;;;;;;;;;20.50;60.50;;;;;;4993117;28;1251;-71
2021/11/29 01:34:33;;;;;;;;;;;20.50;60.50;;;;;;4993931;28;1345;-71
2021/11/29 01:36:58;;;;;;;;;;;20.50;60.50;;;;;;4994333;28;1063;-70
2021/11/29 01:39:24;;;;;;;;;;;20.50;60.50;;;;;;4993957;28;992;-71
2021/11/29 01:41:50;;;;;;;;;;;20.40;60.50;;;;;;4993301;28;1146;-71
2021/11/29 01:44:15;;;;;;;;;;;20.50;60.50;;;;;;4993609;28;1201;-71
2021/11/29 01:46:42;;;;;;;;;;;20.50;60.60;;;;;;4993404;28;1069;-71
2021/11/29 01:49:07;;;;;;;;;;;20.40;60.50;;;;;;4990232;28;1915;-71
2021/11/29 01:51:33;;;;;;;;;;;20.50;60.60;;;;;;4982700;28;1120;-72
2021/11/29 01:53:58;;;;;;;;;;;20.40;60.50;;;;;;4979269;28;1444;-72
2021/11/29 01:56:24;;;;;;;;;;;20.50;60.60;;;;;;4984630;28;1052;-71
2021/11/29 01:58:49;;;;;;;;;;;20.40;60.60;;;;;;4989291;28;1260;-71
2021/11/29 02:01:16;;;;;;;;;;;20.40;60.60;;;;;;4989370;28;1149;-71
2021/11/29 02:03:42;;;;;;;;;;;20.40;60.60;;;;;;4979141;28;1302;-71
2021/11/29 02:06:07;;;;;;;;;;;20.40;60.70;;;;;;4981107;28;1259;-71
2021/11/29 02:08:33;;;;;;;;;;;20.40;60.60;;;;;;4986587;28;1962;-70
2021/11/29 02:10:58;;;;;;;;;;;20.40;60.60;;;;;;4984112;28;1165;-70
2021/11/29 02:13:24;;;;;;;;;;;20.40;60.70;;;;;;4988783;28;1396;-69
2021/11/29 02:15:52;;;;;;;;;;;20.40;60.70;;;;;;4993558;28;1311;-71
2021/11/29 02:18:22;;;;;;;;;;;20.40;60.70;;;;;;4991786;28;1667;-69
2021/11/29 02:21:00;;;;;;;;;;;20.40;60.70;;;;;;4985688;28;1052;-70
2021/11/29 02:23:25;;;;;;;;;;;20.40;60.70;;;;;;5006749;28;1337;-71
2021/11/29 02:25:51;;;;;;;;;;;20.40;60.70;;;;;;4993959;28;1091;-72
2021/11/29 02:28:20;;;;;;;;;;;20.40;60.70;;;;;;4979310;28;1973;-71
2021/11/29 02:30:46;;;;;;;;;;;20.40;60.70;;;;;;4981693;28;1071;-71
2021/11/29 02:33:11;;;;;;;;;;;20.40;60.70;;;;;;4989681;28;1313;-71
2021/11/29 02:35:36;;;;;;;;;;;20.40;60.70;;;;;;4992378;28;1140;-72
2021/11/29 02:38:02;;;;;;;;;;;20.40;60.70;;;;;;4995027;28;1262;-71
2021/11/29 02:40:27;;;;;;;;;;;20.40;60.70;;;;;;4991785;28;1222;-71
2021/11/29 02:42:53;;;;;;;;;;;20.40;60.70;;;;;;4991917;28;1385;-71
2021/11/29 02:45:19;;;;;;;;;;;20.40;60.70;;;;;;4993103;28;1131;-72
2021/11/29 02:47:44;;;;;;;;;;;20.40;60.80;;;;;;4978828;28;1891;-71
2021/11/29 02:50:10;;;;;;;;;;;20.40;60.70;;;;;;4981543;28;1112;-71
2021/11/29 02:52:35;;;;;;;;;;;20.40;60.80;;;;;;4989189;28;1359;-72
2021/11/29 02:55:01;;;;;;;;;;;20.40;60.70;;;;;;4991619;28;1263;-72
2021/11/29 02:57:26;;;;;;;;;;;20.40;60.70;;;;;;4993133;28;1385;-72
2021/11/29 02:59:52;;;;;;;;;;;20.40;60.80;;;;;;4993184;28;1274;-72
2021/11/29 03:02:18;;;;;;;;;;;20.40;60.80;;;;;;4990871;28;1399;-72
2021/11/29 03:04:45;;;;;;;;;;;20.40;60.80;;;;;;4991900;28;1293;-72
2021/11/29 03:07:11;;;;;;;;;;;20.40;60.80;;;;;;4990440;28;1894;-70
2021/11/29 03:09:36;;;;;;;;;;;20.40;60.80;;;;;;4991814;28;1393;-69
2021/11/29 03:12:02;;;;;;;;;;;20.40;60.80;;;;;;4991939;28;1029;-70
2021/11/29 03:14:28;;;;;;;;;;;20.40;60.80;;;;;;4993123;28;1356;-71
2021/11/29 03:16:54;;;;;;;;;;;20.40;60.80;;;;;;4992793;28;892;-70
2021/11/29 03:19:19;;;;;;;;;;;20.40;60.90;;;;;;4992789;28;989;-69
2021/11/29 03:21:45;;;;;;;;;;;20.40;60.90;;;;;;4979284;28;1005;-71
2021/11/29 03:24:10;;;;;;;;;;;20.40;60.90;;;;;;4981763;28;1289;-70
2021/11/29 03:26:36;;;;;;;;;;;20.30;60.80;;;;;;4988936;28;1171;-69
2021/11/29 03:29:05;;;;;;;;;;;20.40;60.90;;;;;;4983013;28;1907;-69
2021/11/29 03:31:32;;;;;;;;;;;20.40;60.90;;;;;;4985000;28;1097;-69
2021/11/29 03:33:59;;;;;;;;;;;20.40;60.90;;;;;;4983212;28;1250;-71
2021/11/29 03:36:25;;;;;;;;;;;20.40;60.90;;;;;;4992580;28;1128;-70
2021/11/29 03:38:50;;;;;;;;;;;20.40;60.90;;;;;;4991014;28;1127;-70
2021/11/29 03:41:16;;;;;;;;;;;20.30;60.80;;;;;;4982417;28;1191;-69
2021/11/29 03:43:41;;;;;;;;;;;20.30;60.80;;;;;;4996188;28;1385;-69
2021/11/29 03:46:07;;;;;;;;;;;20.30;60.90;;;;;;4996220;28;1297;-70
2021/11/29 03:48:32;;;;;;;;;;;20.30;60.90;;;;;;4995898;28;1907;-70
2021/11/29 03:50:58;;;;;;;;;;;20.30;60.90;;;;;;4994532;28;1064;-70
2021/11/29 03:53:23;;;;;;;;;;;20.30;60.90;;;;;;4983873;28;1369;-71
2021/11/29 03:55:49;;;;;;;;;;;20.30;60.90;;;;;;4993561;28;1112;-70
2021/11/29 03:58:14;;;;;;;;;;;20.30;60.90;;;;;;4995039;28;1256;-71
2021/11/29 04:00:40;;;;;;;;;;;20.30;60.90;;;;;;4994479;28;1120;-71
2021/11/29 04:03:05;;;;;;;;;;;20.30;60.90;;;;;;4995467;28;1350;-71
2021/11/29 04:05:31;;;;;;;;;;;20.30;60.90;;;;;;4982374;28;1127;-71
2021/11/29 04:07:56;;;;;;;;;;;20.30;61.00;;;;;;4995592;28;1906;-70
2021/11/29 04:10:22;;;;;;;;;;;20.30;61.00;;;;;;4995807;28;1331;-71
2021/11/29 04:12:47;;;;;;;;;;;20.30;61.00;;;;;;4995092;28;1238;-71
2021/11/29 04:15:13;;;;;;;;;;;20.30;61.00;;;;;;4995888;28;1294;-71
2021/11/29 04:17:41;;;;;;;;;;;20.30;61.00;;;;;;4995124;28;1314;-70
2021/11/29 04:20:08;;;;;;;;;;;20.30;61.00;;;;;;4995492;28;1307;-70
2021/11/29 04:22:34;;;;;;;;;;;20.30;61.00;;;;;;4993522;28;1323;-71
2021/11/29 04:25:02;;;;;;;;;;;20.30;61.10;;;;;;4994432;28;1297;-70
2021/11/29 04:27:29;;;;;;;;;;;20.30;61.10;;;;;;4995251;28;1961;-70
2021/11/29 04:29:54;;;;;;;;;;;20.30;61.10;;;;;;4995305;28;1345;-70
2021/11/29 04:32:20;;;;;;;;;;;20.30;61.10;;;;;;4994604;28;1263;-70
2021/11/29 04:34:45;;;;;;;;;;;20.30;61.10;;;;;;4993808;28;1367;-70
2021/11/29 04:37:11;;;;;;;;;;;20.30;61.10;;;;;;4985245;28;1104;-69
2021/11/29 04:39:36;;;;;;;;;;;20.30;61.10;;;;;;4991679;28;1088;-69
2021/11/29 04:42:02;;;;;;;;;;;20.20;61.00;;;;;;4994550;28;1248;-69
2021/11/29 04:44:28;;;;;;;;;;;20.30;61.10;;;;;;4995990;28;1338;-70
2021/11/29 04:46:53;;;;;;;;;;;20.20;61.10;;;;;;4995145;28;1345;-70
2021/11/29 04:49:19;;;;;;;;;;;20.20;61.10;;;;;;4993597;28;1910;-71
2021/11/29 04:51:44;;;;;;;;;;;20.20;61.10;;;;;;4993263;28;1328;-70
2021/11/29 04:54:10;;;;;;;;;;;20.20;61.10;;;;;;4994926;28;1268;-70
2021/11/29 04:56:36;;;;;;;;;;;20.20;61.10;;;;;;4995215;28;1229;-72
2021/11/29 04:59:01;;;;;;;;;;;20.20;61.10;;;;;;4994671;28;1208;-71
2021/11/29 05:01:27;;;;;;;;;;;20.20;61.10;;;;;;4994256;28;1288;-70
2021/11/29 05:03:52;;;;;;;;;;;20.20;61.10;;;;;;4994521;28;1364;-71
2021/11/29 05:06:19;;;;;;;;;;;20.20;61.10;;;;;;4994919;28;1333;-71
2021/11/29 05:08:44;;;;;;;;;;;20.20;61.10;;;;;;4994394;28;1965;-71
2021/11/29 05:11:10;;;;;;;;;;;20.20;61.10;;;;;;4992891;28;1387;-73
2021/11/29 05:13:35;;;;;;;;;;;20.30;61.10;;;;;;4993868;28;1314;-73
2021/11/29 05:16:01;;;;;;;;;;;20.30;61.00;;;;;;4994859;28;1289;-73
2021/11/29 05:18:26;;;;;;;;;;;20.30;60.90;;;;;;4994233;28;1275;-73
2021/11/29 05:20:52;;;;;;;;;;;20.40;60.90;;;;;;4994392;28;1052;-72
2021/11/29 05:23:17;;;;;;;;;;;20.40;60.70;;;;;;4981509;28;1368;-72
2021/11/29 05:25:43;;;;;;;;;;;20.40;60.50;;;;;;4994306;28;1366;-71
2021/11/29 05:28:09;;;;;;;;;;;20.50;60.40;;;;;;4994286;28;1959;-72
2021/11/29 05:30:34;;;;;;;;;;;20.50;61.10;;;;;;4994522;28;1030;-72
2021/11/29 05:33:00;;;;;;;;;;;20.50;60.20;;;;;;4992149;28;1347;-71
2021/11/29 05:35:25;;;;;;;;;;;20.60;60.10;;;;;;4992988;28;1380;-71
2021/11/29 05:37:51;;;;;;;;;;;20.60;60.00;;;;;;4993931;28;1303;-72
2021/11/29 05:40:16;;;;;;;;;;;20.60;59.90;;;;;;4985738;28;1124;-71
2021/11/29 05:42:42;;;;;;;;;;;20.60;59.80;;;;;;4976590;28;1206;-71
2021/11/29 05:45:08;;;;;;;;;;;20.60;59.80;;;;;;4994045;28;1260;-71
2021/11/29 05:47:33;;;;;;;;;;;20.70;59.80;;;;;;4994118;28;2005;-71
2021/11/29 05:49:59;;;;;;;;;;;20.70;59.70;;;;;;4993866;28;1351;-71
2021/11/29 05:52:24;;;;;;;;;;;20.70;59.70;;;;;;4992872;28;1358;-71
2021/11/29 05:54:50;;;;;;;;;;;20.70;59.70;;;;;;4993818;28;1275;-70
2021/11/29 05:57:15;;;;;;;;;;;20.70;59.60;;;;;;4993908;28;1309;-70
2021/11/29 05:59:41;;;;;;;;;;;20.70;59.60;;;;;;4993988;28;1280;-70
2021/11/29 06:02:07;;;;;;;;;;;20.70;59.60;;;;;;4992888;28;1258;-70
2021/11/29 06:04:32;;;;;;;;;;;20.70;59.60;;;;;;4991037;28;1312;-70
2021/11/29 06:06:58;;;;;;;;;;;20.70;59.50;;;;;;4993602;28;1278;-71
2021/11/29 06:09:23;;;;;;;;;;;20.70;59.50;;;;;;4993576;28;1969;-71
2021/11/29 06:11:49;;;;;;;;;;;20.70;59.50;;;;;;4991768;28;1320;-71
2021/11/29 06:14:14;;;;;;;;;;;20.70;59.60;;;;;;4993281;28;1562;-71
2021/11/29 06:16:40;;;;;;;;;;;20.70;59.50;;;;;;4993457;28;1294;-70
2021/11/29 06:19:05;;;;;;;;;;;20.70;59.50;;;;;;4993118;28;1087;-71
2021/11/29 06:21:31;;;;;;;;;;;20.70;59.50;;;;;;4992700;28;1243;-70
2021/11/29 06:23:56;;;;;;;;;;;20.70;59.50;;;;;;4993383;28;1291;-70
2021/11/29 06:26:22;;;;;;;;;;;20.70;59.50;;;;;;4992875;28;1246;-71
2021/11/29 06:28:47;;;;;;;;;;;20.70;59.50;;;;;;4993417;28;1918;-70
2021/11/29 06:31:13;;;;;;;;;;;20.70;59.50;;;;;;4992487;28;1284;-71
2021/11/29 06:33:38;;;;;;;;;;;20.70;59.50;;;;;;4992901;28;1300;-72
2021/11/29 06:36:04;;;;;;;;;;;20.70;59.50;;;;;;4991895;28;1080;-72
2021/11/29 06:38:30;;;;;;;;;;;20.70;59.50;;;;;;4991934;28;1400;-72
2021/11/29 06:40:55;;;;;;;;;;;20.70;59.50;;;;;;4992612;28;1266;-72
2021/11/29 06:43:21;;;;;;;;;;;20.70;59.50;;;;;;4992746;28;1306;-72
2021/11/29 06:45:47;;;;;;;;;;;20.70;59.50;;;;;;4993374;28;1174;-70
2021/11/29 06:48:13;;;;;;;;;;;20.70;59.50;;;;;;4992654;28;1911;-70
2021/11/29 06:50:38;;;;;;;;;;;20.70;59.50;;;;;;4991609;28;1270;-70
2021/11/29 06:53:04;;;;;;;;;;;20.70;59.50;;;;;;4992707;28;1280;-70
2021/11/29 06:55:32;;;;;;;;;;;20.70;59.50;;;;;;4992971;28;1327;-70
2021/11/29 06:57:57;;;;;;;;;;;20.70;59.50;;;;;;4993044;28;1321;-70
2021/11/29 07:00:24;;;;;;;;;;;20.70;59.50;;;;;;4991380;28;1309;-70
2021/11/29 07:02:49;;;;;;;;;;;20.70;59.50;;;;;;4992639;28;1394;-71
2021/11/29 07:05:15;;;;;;;;;;;20.70;59.50;;;;;;4991912;28;1103;-71
2021/11/29 07:07:41;;;;;;;;;;;20.70;59.50;;;;;;4991345;28;1973;-71
2021/11/29 07:10:07;;;;;;;;;;;20.70;59.50;;;;;;4993266;28;1310;-71
2021/11/29 07:12:33;;;;;;;;;;;20.80;59.50;;;;;;4992270;28;1287;-71
2021/11/29 07:14:58;;;;;;;;;;;20.70;59.50;;;;;;4993838;28;1274;-71
2021/11/29 07:17:24;;;;;;;;;;;20.70;59.50;;;;;;4994953;28;1314;-71
2021/11/29 07:19:53;;;;;;;;;;;20.70;59.50;;;;;;4997215;28;997;-71
2021/11/29 07:22:20;;;;;;;;;;;20.70;59.50;;;;;;4995787;28;1366;-71
2021/11/29 07:24:45;;;;;;;;;;;20.70;59.50;;;;;;4996774;28;1299;-70
2021/11/29 07:27:11;;;;;;;;;;;20.70;59.40;;;;;;4987821;28;1342;-71
2021/11/29 07:29:36;;;;;;;;;;;20.70;59.50;;;;;;4990828;28;1903;-70
2021/11/29 07:32:02;;;;;;;;;;;20.70;59.40;;;;;;4995100;28;937;-70
2021/11/29 07:34:27;;;;;;;;;;;20.70;59.40;;;;;;4990462;28;1307;-72
2021/11/29 07:36:53;;;;;;;;;;;20.70;59.50;;;;;;5011764;28;1366;-71
2021/11/29 07:39:18;;;;;;;;;;;20.70;59.50;;;;;;4996315;28;1279;-71
2021/11/29 07:41:44;;;;;;;;;;;20.70;59.50;;;;;;4995409;28;1333;-68
2021/11/29 07:44:09;;;;;;;;;;;20.70;59.50;;;;;;4995866;28;1322;-68
2021/11/29 07:46:35;;;;;;;;;;;20.70;59.50;;;;;;4994873;28;1315;-70
2021/11/29 07:49:00;;;;;;;;;;;20.80;59.50;;;;;;4995844;28;1985;-71
2021/11/29 07:51:26;;;;;;;;;;;20.90;59.40;;;;;;4995382;28;1248;-72
2021/11/29 07:53:53;;;;;;;;;;;21.00;59.30;;;;;;4995590;28;1371;-73
2021/11/29 07:56:19;;;;;;;;;;;21.10;59.20;;;;;;4996197;28;1214;-72
2021/11/29 07:58:44;;;;;;;;;;;21.20;59.00;;;;;;4995944;28;1362;-73
2021/11/29 08:01:11;;;;;;;;;;;21.30;58.80;;;;;;4993790;28;1267;-72
2021/11/29 08:03:37;;;;;;;;;;;21.40;58.60;;;;;;4995666;28;1328;-72
2021/11/29 08:06:02;;;;;;;;;;;21.60;58.30;;;;;;4995823;28;1270;-72
2021/11/29 08:08:28;;;;;;;;;;;21.70;58.10;;;;;;4995746;28;1965;-72
2021/11/29 08:10:53;;;;;;;;;;;21.80;57.80;;;;;;4995405;28;1440;-72
2021/11/29 08:13:19;;;;;;;;;;;21.90;57.50;;;;;;4995485;28;1236;-72
2021/11/29 08:15:44;;;;;;;;;;;22.00;57.30;;;;;;4995502;28;1260;-72
2021/11/29 08:18:10;;;;;;;;;;;22.00;57.10;;;;;;4994579;28;1301;-72
2021/11/29 08:20:36;;;;;;;;;;;22.10;56.90;;;;;;4995664;28;1353;-72
2021/11/29 08:23:01;;;;;;;;;;;22.20;56.80;;;;;;4994604;28;1284;-72
2021/11/29 08:25:27;;;;;;;;;;;22.20;56.60;;;;;;4995563;28;1265;-72
2021/11/29 08:27:52;;;;;;;;;;;22.30;56.50;;;;;;4994351;28;1970;-73
2021/11/29 08:30:18;;;;;;;;;;;22.40;56.40;;;;;;4994746;28;1373;-73
2021/11/29 08:32:44;;;;;;;;;;;22.40;56.20;;;;;;4994500;28;1290;-72
2021/11/29 08:35:10;;;;;;;;;;;22.50;56.10;;;;;;4995469;28;1448;-73
2021/11/29 08:37:35;;;;;;;;;;;22.50;56.00;;;;;;4995221;28;1052;-72
2021/11/29 08:40:01;;;;;;;;;;;22.50;55.90;;;;;;4995488;28;1353;-72
2021/11/29 08:42:26;;;;;;;;;;;22.60;55.90;;;;;;4994109;28;1322;-72
2021/11/29 08:44:52;;;;;;;;;;;22.60;55.80;;;;;;4995092;28;1292;-74
2021/11/29 08:47:17;;;;;;;;;;;22.70;55.70;;;;;;4994043;28;1327;-74
2021/11/29 08:49:44;;;;;;;;;;;22.70;55.60;;;;;;4994792;28;1959;-74
2021/11/29 08:52:10;;;;;;;;;;;22.70;55.60;;;;;;4994203;28;1036;-74
2021/11/29 08:54:37;;;;;;;;;;;22.80;55.50;;;;;;4995237;28;1303;-74
2021/11/29 08:57:03;;;;;;;;;;;22.80;55.50;;;;;;4995060;28;1329;-74
2021/11/29 08:59:28;;;;;;;;;;;22.80;55.50;;;;;;4994798;28;1450;-74
2021/11/29 09:01:54;;;;;;;;;;;22.90;55.50;;;;;;4994231;28;1355;-74
2021/11/29 09:04:19;;;;;;;;;;;22.90;55.40;;;;;;4994537;28;1366;-74
2021/11/29 09:06:45;;;;;;;;;;;22.90;55.30;;;;;;4994912;28;1157;-74
2021/11/29 09:09:11;;;;;;;;;;;22.90;55.30;;;;;;4992815;28;1943;-74
2021/11/29 09:11:37;;;;;;;;;;;22.90;55.30;;;;;;4990395;28;1079;-74
2021/11/29 09:14:02;;;;;;;;;;;23.00;55.30;;;;;;4989065;28;1391;-74
2021/11/29 09:16:28;;;;;;;;;;;23.00;55.30;;;;;;4983239;28;1150;-74
2021/11/29 09:18:53;;;;;;;;;;;23.00;55.30;;;;;;5009714;28;1416;-73
2021/11/29 09:21:19;;;;;;;;;;;23.00;55.20;;;;;;4980949;28;1199;-72
2021/11/29 09:23:45;;;;;;;;;;;23.00;55.20;;;;;;5008883;28;1349;-73
2021/11/29 09:26:10;;;;;;;;;;;23.00;55.20;;;;;;4993687;28;1111;-72
2021/11/29 09:28:36;;;;;;;;;;;23.00;55.20;;;;;;5008962;28;1898;-73
2021/11/29 09:31:01;;;;;;;;;;;23.00;55.20;;;;;;4993850;28;1052;-73
2021/11/29 09:33:27;;;;;;;;;;;23.00;55.20;;;;;;4993121;28;1329;-73
2021/11/29 09:35:52;;;;;;;;;;;23.10;55.30;;;;;;4994574;28;1079;-73
2021/11/29 09:38:18;;;;;;;;;;;23.10;55.30;;;;;;4994060;28;1525;-73
2021/11/29 09:40:44;;;;;;;;;;;23.00;55.30;;;;;;4991782;28;1135;-72
2021/11/29 09:43:10;;;;;;;;;;;23.10;55.40;;;;;;4983895;28;1266;-73
2021/11/29 09:45:36;;;;;;;;;;;23.10;55.50;;;;;;4998885;28;1355;-73
2021/11/29 09:48:02;;;;;;;;;;;23.00;55.50;;;;;;4986046;28;1910;-71
2021/11/29 09:50:27;;;;;;;;;;;23.00;55.50;;;;;;4981752;28;1205;-71
2021/11/29 09:52:53;;;;;;;;;;;23.00;55.60;;;;;;4992417;28;1271;-72
2021/11/29 09:55:20;;;;;;;;;;;23.00;55.50;;;;;;4993861;28;1326;-73
2021/11/29 09:57:45;;;;;;;;;;;23.00;55.60;;;;;;4992140;28;1340;-72
2021/11/29 10:00:12;;;;;;;;;;;23.00;55.60;;;;;;4989591;28;1258;-73
2021/11/29 10:02:38;;;;;;;;;;;22.90;55.60;;;;;;4983835;28;1345;-72
2021/11/29 10:05:04;;;;;;;;;;;22.90;55.60;;;;;;4993755;28;1382;-71
2021/11/29 10:07:37;;;;;;;;;;;22.90;55.60;;;;;;4992903;28;1946;-72
2021/11/29 10:10:19;;;;;;;;;;;22.90;55.60;;;;;;4993687;28;1389;-72
2021/11/29 10:12:45;;;;;;;;;;;22.90;55.70;;;;;;4987753;28;1311;-72
2021/11/29 10:15:14;;;;;;;;;;;22.90;55.70;;;;;;4980377;28;1120;-72
2021/11/29 10:17:40;;;;;;;;;;;22.90;55.70;;;;;;4993418;28;1100;-71
2021/11/29 10:20:06;;;;;;;;;;;22.90;55.70;;;;;;4992280;28;1359;-72
2021/11/29 10:22:32;;;;;;;;;;;22.90;55.80;;;;;;4981618;28;1346;-72
2021/11/29 10:24:58;;;;;;;;;;;22.80;55.80;;;;;;4989703;28;1156;-72
2021/11/29 10:27:36;;;;;;;;;;;22.80;55.80;;;;;;4991689;28;1269;-72
2021/11/29 10:30:02;;;;;;;;;;;22.80;55.80;;;;;;5008667;28;1179;-72
2021/11/29 10:32:28;;;;;;;;;;;22.80;55.80;;;;;;4990938;28;1376;-71
2021/11/29 10:34:55;;;;;;;;;;;22.80;55.90;;;;;;4991637;28;1112;-72
2021/11/29 10:37:20;;;;;;;;;;;22.80;55.90;;;;;;4980596;28;1213;-72
2021/11/29 10:39:47;;;;;;;;;;;22.70;55.90;;;;;;4985515;28;1317;-71
2021/11/29 10:42:15;;;;;;;;;;;22.70;56.00;;;;;;4984292;28;1221;-71
2021/11/29 10:44:41;;;;;;;;;;;22.70;56.10;;;;;;5037918;23;2007;-69
2021/11/29 10:47:11;;;;;;;;;;;22.60;56.10;;;;;;5031504;28;1292;-69
2021/11/29 10:49:38;;;;;;;;;;;22.60;56.20;;;;;;5031939;28;1971;-68
2021/11/29 10:52:03;;;;;;;;;;;22.60;56.20;;;;;;5030275;28;1303;-69
2021/11/29 10:54:30;;;;;;;;;;;22.60;56.30;;;;;;5031125;28;1449;-69
2021/11/29 10:56:56;;;;;;;;;;;22.60;56.40;;;;;;5032276;28;1195;-68
2021/11/29 10:59:22;;;;;;;;;;;22.60;56.40;;;;;;5031168;28;1462;-68
2021/11/29 11:01:49;;;;;;;;;;;22.50;56.40;;;;;;5030344;28;1690;-68
2021/11/29 11:04:20;;;;;;;;;;;22.50;56.50;;;;;;5032465;28;1796;-69
2021/11/29 11:06:52;;;;;;;;;;;22.50;56.50;;;;;;5031030;28;1382;-69
2021/11/29 11:09:19;;;;;;;;;;;22.50;56.60;;;;;;5030845;28;1882;-69
2021/11/29 11:11:48;;;;;;;;;;;22.50;56.60;;;;;;5029288;28;1938;-69
2021/11/29 11:14:15;;;;;;;;;;;22.40;56.60;;;;;;5031495;28;1494;-69
2021/11/29 11:17:01;;;;;;;;;;;22.40;56.70;;;;;;5030603;28;1352;-68
2021/11/29 11:19:30;;;;;;;;;;;22.40;56.70;;;;;;5031080;28;1406;-68
2021/11/29 11:21:57;;;;;;;;;;;22.40;56.80;;;;;;5031417;28;1660;-69
2021/11/29 11:24:25;;;;;;;;;;;22.40;56.80;;;;;;5030928;28;1550;-69
2021/11/29 11:26:51;;;;;;;;;;;22.40;56.90;;;;;;5032256;28;1651;-69
2021/11/29 11:29:36;;;;;;;;;;;22.40;56.90;;;;;;5031426;28;1957;-68
2021/11/29 11:32:11;;;;;;;;;;;22.40;56.90;;;;;;5031109;28;1345;-69
2021/11/29 11:34:37;;;;;;;;;;;22.40;56.90;;;;;;5030945;28;1694;-69
2021/11/29 11:37:03;;;;;;;;;;;22.40;56.90;;;;;;5032168;28;1662;-69
2021/11/29 11:39:28;;;;;;;;;;;22.40;56.80;;;;;;5030706;28;1751;-69
2021/11/29 11:41:54;;;;;;;;;;;22.40;56.70;;;;;;5029553;28;1582;-69
2021/11/29 11:44:19;;;;;;;;;;;22.40;56.70;;;;;;5030163;28;1671;-67
2021/11/29 11:46:45;;;;;;;;;;;22.50;56.70;;;;;;5030703;28;1670;-68
2021/11/29 11:49:10;;;;;;;;;;;22.50;55.70;;;;;;5030649;28;1906;-68
2021/11/29 11:51:38;;;;;;;;;;;22.40;53.50;;;;;;5029940;28;1402;-68
2021/11/29 11:54:04;;;;;;;;;;;22.40;51.50;;;;;;5030548;28;1293;-68
2021/11/29 11:56:29;;;;;;;;;;;22.40;50.70;;;;;;5031654;28;1615;-68
2021/11/29 11:58:56;;;;;;;;;;;22.30;50.00;;;;;;5028429;28;1367;-68
2021/11/29 12:01:23;;;;;;;;;;;22.30;49.10;;;;;;5024980;28;1395;-67
2021/11/29 12:03:49;;;;;;;;;;;22.30;48.30;;;;;;5034168;28;1682;-69
2021/11/29 12:06:17;;;;;;;;;;;22.20;48.20;;;;;;5035273;28;1444;-69
2021/11/29 12:08:45;;;;;;;;;;;22.20;48.20;;;;;;5034228;28;1898;-68
2021/11/29 12:11:20;;;;;;;;;;;22.20;48.60;;;;;;5034549;28;794;-69
2021/11/29 12:13:45;;;;;;;;;;;22.20;49.00;;;;;;5035102;28;1833;-68
2021/11/29 12:16:12;;;;;;;;;;;22.20;49.40;;;;;;5035020;28;1157;-68
2021/11/29 12:18:41;;;;;;;;;;;22.20;49.90;;;;;;5035161;28;1727;-68
2021/11/29 12:21:16;;;;;;;;;;;22.20;50.10;;;;;;5034585;28;1658;-68
2021/11/29 12:24:00;;;;;;;;;;;22.20;50.60;;;;;;5034518;28;1684;-70
2021/11/29 12:26:47;;;;;;;;;;;22.20;50.80;;;;;;5035149;28;1438;-68
2021/11/29 12:29:22;;;;;;;;;;;22.20;51.10;;;;;;5035046;28;1898;-68
2021/11/29 12:31:47;;;;;;;;;;;22.20;51.40;;;;;;5033769;28;1506;-69
2021/11/29 12:34:13;;;;;;;;;;;22.20;51.70;;;;;;5034551;28;1346;-69
2021/11/29 12:36:54;;;;;;;;;;;22.20;51.80;;;;;;5033973;28;1812;-69
2021/11/29 12:39:38;;;;;;;;;;;22.20;52.00;;;;;;5034620;28;1702;-69
2021/11/29 12:42:03;;;;;;;;;;;22.20;52.20;;;;;;5033657;28;1087;-69
2021/11/29 12:44:45;;;;;;;;;;;22.20;52.30;;;;;;5034385;28;1406;-69
2021/11/29 12:47:29;;;;;;;;;;;22.20;52.50;;;;;;5033684;28;1378;-69
2021/11/29 12:49:59;;;;;;;;;;;22.10;52.60;;;;;;5034359;28;1906;-69
2021/11/29 12:52:38;;;;;;;;;;;22.10;52.70;;;;;;5032739;28;1664;-69
2021/11/29 12:55:23;;;;;;;;;;;22.10;53.40;;;;;;5033954;28;1370;-69
2021/11/29 12:58:09;;;;;;;;;;;22.10;53.00;;;;;;5027245;28;1336;-69
2021/11/29 13:00:38;;;;;;;;;;;22.10;53.10;;;;;;5026682;28;1682;-69
2021/11/29 13:03:04;;;;;;;;;;;22.10;53.20;;;;;;5033166;28;1654;-69
2021/11/29 13:05:30;;;;;;;;;;;22.00;53.30;;;;;;5033004;28;1443;-69
2021/11/29 13:08:01;;;;;;;;;;;22.00;53.40;;;;;;5034333;28;1906;-69
2021/11/29 13:10:45;;;;;;;;;;;22.00;53.50;;;;;;5034148;28;1401;-69
2021/11/29 13:13:22;;;;;;;;;;;22.00;53.60;;;;;;5033529;28;1698;-69
2021/11/29 13:15:58;;;;;;;;;;;22.00;53.70;;;;;;5033460;28;1672;-69
2021/11/29 13:18:56;;;;;;;;;;;22.00;53.80;;;;;;5031091;28;1603;-69
2021/11/29 13:21:33;;;;;;;;;;;22.00;53.90;;;;;;5004012;28;1628;-69
2021/11/29 13:24:02;;;;;;;;;;;22.00;54.00;;;;;;5023433;28;1403;-69
2021/11/29 13:26:28;;;;;;;;;;;21.90;54.00;;;;;;5024989;28;1200;-69
2021/11/29 13:28:55;;;;;;;;;;;21.90;54.10;;;;;;5024222;28;1910;-68
2021/11/29 13:31:24;;;;;;;;;;;21.90;54.20;;;;;;5021898;28;1311;-69
2021/11/29 13:33:50;;;;;;;;;;;21.90;54.30;;;;;;5028580;28;1296;-68
2021/11/29 13:36:15;;;;;;;;;;;21.90;54.40;;;;;;5024928;28;1201;-69
2021/11/29 13:38:41;;;;;;;;;;;21.90;54.40;;;;;;5022735;28;1260;-69
2021/11/29 13:41:14;;;;;;;;;;;21.90;54.50;;;;;;5023177;28;1252;-68
2021/11/29 13:43:39;;;;;;;;;;;21.90;54.50;;;;;;5021663;28;1311;-69
2021/11/29 13:46:14;;;;;;;;;;;21.80;54.60;;;;;;5025941;28;1232;-69
2021/11/29 13:48:40;;;;;;;;;;;21.80;54.60;;;;;;5023310;28;1914;-68
2021/11/29 13:51:05;;;;;;;;;;;21.90;54.70;;;;;;5024780;28;1194;-68
2021/11/29 13:53:33;;;;;;;;;;;21.80;54.70;;;;;;5025491;28;1616;-68
2021/11/29 13:55:59;;;;;;;;;;;21.80;54.80;;;;;;5039277;28;1260;-69
2021/11/29 13:58:27;;;;;;;;;;;21.80;54.90;;;;;;5036652;28;1617;-69
2021/11/29 14:00:57;;;;;;;;;;;21.80;54.90;;;;;;5021797;28;1285;-68
2021/11/29 14:03:26;;;;;;;;;;;21.80;55.00;;;;;;5025921;28;1468;-69
2021/11/29 14:05:59;;;;;;;;;;;21.70;55.00;;;;;;5037447;28;1237;-68
2021/11/29 14:08:27;;;;;;;;;;;21.70;55.00;;;;;;5023155;28;1910;-69
2021/11/29 14:11:15;;;;;;;;;;;21.70;55.20;;;;;;5020820;28;1212;-69
2021/11/29 14:13:43;;;;;;;;;;;21.70;55.20;;;;;;5023690;28;1246;-68
2021/11/29 14:16:17;;;;;;;;;;;21.70;55.30;;;;;;5023050;28;1066;-69
2021/11/29 14:18:46;;;;;;;;;;;21.70;55.00;;;;;;5025894;28;1208;-69
2021/11/29 14:21:19;;;;;;;;;;;21.60;55.10;;;;;;5020011;28;1267;-69
2021/11/29 14:23:44;;;;;;;;;;;21.60;55.20;;;;;;5023235;28;1290;-70
2021/11/29 14:26:11;;;;;;;;;;;21.60;55.30;;;;;;5029204;28;1834;-68
2021/11/29 14:28:36;;;;;;;;;;;21.60;55.30;;;;;;5032372;28;1947;-69
2021/11/29 14:31:02;;;;;;;;;;;21.60;55.40;;;;;;5019827;28;1323;-69